createdAt,value
2019-04-24T00:29:55.736Z,99.90
2019-04-24T00:32:39.419Z,99.90
2019-04-24T00:35:30.183Z,99.90
2019-04-24T00:38:14.300Z,99.90
2019-04-24T00:41:06.431Z,99.90
2019-04-24T00:46:32.616Z,99.90
2019-04-24T00:49:04.142Z,99.90
2019-04-24T00:51:44.640Z,99.90
2019-04-24T00:57:06.917Z,99.90
2019-04-24T00:59:41.002Z,99.90
2019-04-24T01:08:54.383Z,99.90
2019-04-24T01:11:35.570Z,99.90
2019-04-24T01:14:27.855Z,99.90
2019-04-24T01:17:14.430Z,99.90
2019-04-24T01:20:02.391Z,99.90
2019-04-24T01:22:53.954Z,99.90
2019-04-24T01:25:25.015Z,99.90
2019-04-24T01:28:04.154Z,99.90
2019-04-24T01:40:06.518Z,99.90
2019-04-24T01:46:01.774Z,99.90
2019-04-24T01:49:00.711Z,99.90
2019-04-24T01:54:12.707Z,99.90
2019-04-24T01:56:59.421Z,99.90
2019-04-24T01:59:37.719Z,99.90
2019-04-24T02:02:28.806Z,99.90
2019-04-24T02:11:25.027Z,99.90
2019-04-24T02:13:49.003Z,99.90
2019-04-24T02:16:36.012Z,99.90
2019-04-24T02:19:18.796Z,99.90
2019-04-24T02:22:11.487Z,99.90
2019-04-24T02:24:58.704Z,99.90
2019-04-24T02:30:33.150Z,99.90
2019-04-24T02:33:35.244Z,99.90
2019-04-24T02:42:42.709Z,99.90
2019-04-24T02:45:45.913Z,99.90
2019-04-24T02:51:09.527Z,99.90
2019-04-24T02:56:36.087Z,99.90
2019-04-24T02:59:20.378Z,99.90
2019-04-24T03:02:11.799Z,99.90
2019-04-24T03:10:31.108Z,99.90
2019-04-24T03:19:11.490Z,99.90
2019-04-24T03:21:56.646Z,99.90
2019-04-24T03:24:26.560Z,99.90
2019-04-24T03:33:27.788Z,99.90
2019-04-24T03:38:50.326Z,99.90
2019-04-24T03:44:43.033Z,99.90
2019-04-24T03:46:54.454Z,99.90
2019-04-24T03:52:36.359Z,99.90
2019-04-24T03:55:48.589Z,99.90
2019-04-24T03:58:40.134Z,99.90
2019-04-24T04:01:27.154Z,99.90
2019-04-24T04:04:18.879Z,99.90
2019-04-24T04:12:26.046Z,99.90
2019-04-24T04:15:02.414Z,99.90
2019-04-24T04:18:03.581Z,99.90
2019-04-24T04:29:32.088Z,99.90
2019-04-24T04:35:26.501Z,99.90
2019-04-24T04:38:10.137Z,99.90
2019-04-24T05:05:26.922Z,99.90
2019-04-24T05:08:13.324Z,99.90
2019-04-24T05:10:55.508Z,99.90
2019-04-24T05:13:21.999Z,99.90
2019-04-24T05:21:42.412Z,99.00
2019-04-24T05:27:16.799Z,99.90
2019-04-24T05:36:19.733Z,99.90
2019-04-24T05:44:41.048Z,99.90
2019-04-24T05:51:13.377Z,99.90
2019-04-24T05:54:12.406Z,99.90
2019-04-24T06:00:27.788Z,99.90
2019-04-24T06:03:31.203Z,99.90
2019-04-24T06:06:57.238Z,99.90
2019-04-24T06:09:38.682Z,99.90
2019-04-24T06:13:04.544Z,99.90
2019-04-24T06:15:59.086Z,99.90
2019-04-24T06:19:03.152Z,99.90
2019-04-24T06:22:03.386Z,99.90
2019-04-24T06:24:37.748Z,99.90
2019-04-24T06:30:29.230Z,99.90
2019-04-24T06:33:01.031Z,99.90
2019-04-24T06:35:54.374Z,99.90
2019-04-24T06:38:37.515Z,99.90
2019-04-24T06:44:01.981Z,99.90
2019-04-24T06:47:20.855Z,99.90
2019-04-24T06:49:15.421Z,99.90
2019-04-24T06:57:59.062Z,99.90
2019-04-24T07:07:27.604Z,99.90
2019-04-24T07:10:41.350Z,99.90
2019-04-24T07:19:27.895Z,99.90
2019-04-24T07:22:19.515Z,99.90
2019-04-24T07:25:34.624Z,99.90
2019-04-24T07:34:59.539Z,99.90
2019-04-24T07:37:52.662Z,99.90
2019-04-24T07:40:31.758Z,99.90
2019-04-24T07:46:21.557Z,99.90
2019-04-24T07:52:11.206Z,99.90
2019-04-24T07:57:40.230Z,99.90
2019-04-24T08:00:40.497Z,99.90
2019-04-24T08:06:04.477Z,99.90
2019-04-24T08:08:59.727Z,99.90
2019-04-24T08:11:35.797Z,99.90
2019-04-24T08:14:35.103Z,99.90
2019-04-24T08:17:00.139Z,99.90
2019-04-24T08:22:35.366Z,99.90
2019-04-24T08:27:50.156Z,99.90
2019-04-24T08:30:37.067Z,99.90
2019-04-24T08:33:18.369Z,99.90
2019-04-24T08:45:04.022Z,99.90
2019-04-24T08:47:52.692Z,99.90
2019-04-24T08:50:57.489Z,99.90
2019-04-24T08:53:22.291Z,99.90
2019-04-24T08:55:48.514Z,99.90
2019-04-24T08:58:37.954Z,99.90
2019-04-24T09:06:51.895Z,99.90
2019-04-24T09:10:31.337Z,99.90
2019-04-24T09:15:57.874Z,99.90
2019-04-24T09:18:58.670Z,99.90
2019-04-24T09:21:39.443Z,99.90
2019-04-24T09:24:40.279Z,99.90
2019-04-24T09:36:54.698Z,99.90
2019-04-24T09:46:07.814Z,99.90
2019-04-24T09:48:50.795Z,99.90
2019-04-24T09:51:25.464Z,99.90
2019-04-24T09:54:21.058Z,99.90
2019-04-24T09:57:10.376Z,99.90
2019-04-24T09:59:47.706Z,99.90
2019-04-24T10:02:57.632Z,99.90
2019-04-24T10:06:35.805Z,99.90
2019-04-24T10:08:58.011Z,99.90
2019-04-24T10:14:39.943Z,99.90
2019-04-24T10:17:44.522Z,99.90
2019-04-24T10:25:52.278Z,99.90
2019-04-24T10:29:23.415Z,99.90
2019-04-24T10:41:56.736Z,99.90
2019-04-24T10:45:08.588Z,99.90
2019-04-24T10:48:06.522Z,99.90
2019-04-24T10:51:03.735Z,99.90
2019-04-24T10:56:36.491Z,99.90
2019-04-24T10:59:17.268Z,99.90
2019-04-24T11:02:28.027Z,99.90
2019-04-24T11:05:34.435Z,99.90
2019-04-24T11:17:42.377Z,99.90
2019-04-24T11:24:04.553Z,99.90
2019-04-24T11:26:55.339Z,99.90
2019-04-24T11:29:56.054Z,99.90
2019-04-24T11:35:28.919Z,99.90
2019-04-24T11:41:38.522Z,99.90
2019-04-24T11:53:19.522Z,99.90
2019-04-24T11:56:13.912Z,99.90
2019-04-24T12:06:28.012Z,99.90
2019-04-24T12:11:35.481Z,99.20
2019-04-24T12:14:31.107Z,98.50
2019-04-24T12:17:08.003Z,98.30
2019-04-24T12:23:31.045Z,99.90
2019-04-24T12:28:54.055Z,99.90
2019-04-24T12:43:13.520Z,99.70
2019-04-24T12:46:24.973Z,99.70
2019-04-24T12:48:50.869Z,98.40
2019-04-24T12:51:31.864Z,98.30
2019-04-24T13:06:04.261Z,97.40
2019-04-24T13:09:19.410Z,96.90
2019-04-24T13:12:29.116Z,95.60
2019-04-24T13:15:34.836Z,97.20
2019-04-24T13:18:16.440Z,97.00
2019-04-24T13:20:36.863Z,97.90
2019-04-24T13:23:35.959Z,98.70
2019-04-24T13:35:55.702Z,95.90
2019-04-24T13:46:36.399Z,93.90
2019-04-24T13:49:13.858Z,94.00
2019-04-24T13:52:19.287Z,93.70
2019-04-24T13:54:49.302Z,93.70
2019-04-24T13:57:27.444Z,93.20
2019-04-24T14:00:21.077Z,94.10
2019-04-24T14:05:44.093Z,93.00
2019-04-24T14:08:27.756Z,92.60
2019-04-24T14:12:23.776Z,92.40
2019-04-24T14:13:44.514Z,92.10
2019-04-24T14:16:18.908Z,92.20
2019-04-24T14:30:56.418Z,91.20
2019-04-24T14:33:27.973Z,91.00
2019-04-24T14:36:20.199Z,91.30
2019-04-24T14:38:57.776Z,91.00
2019-04-24T14:41:26.561Z,90.90
2019-04-24T14:50:26.305Z,90.20
2019-04-24T14:53:06.984Z,90.40
2019-04-24T15:03:38.065Z,89.00
2019-04-24T15:12:07.350Z,89.10
2019-04-24T15:17:43.896Z,88.50
2019-04-24T15:20:35.757Z,88.60
2019-04-24T15:23:19.106Z,89.60
2019-04-24T15:28:58.066Z,88.50
2019-04-24T15:31:35.764Z,89.30
2019-04-24T15:37:09.834Z,89.60
2019-04-24T15:39:47.631Z,88.60
2019-04-24T15:42:14.508Z,87.10
2019-04-24T15:45:02.024Z,88.20
2019-04-24T15:48:03.485Z,89.90
2019-04-24T15:52:37.086Z,90.10
2019-04-24T15:58:43.123Z,90.80
2019-04-24T16:02:04.536Z,85.60
2019-04-24T16:07:07.082Z,84.10
2019-04-24T16:09:58.806Z,84.30
2019-04-24T16:12:39.176Z,81.90
2019-04-24T16:18:54.204Z,81.50
2019-04-24T16:24:31.151Z,82.10
2019-04-24T16:32:20.492Z,82.40
2019-04-24T16:34:51.944Z,82.40
2019-04-24T16:37:38.232Z,82.00
2019-04-24T16:48:58.310Z,82.40
2019-04-24T16:54:17.193Z,83.90
2019-04-24T16:59:28.927Z,84.50
2019-04-24T17:02:18.665Z,85.80
2019-04-24T17:08:04.190Z,86.20
2019-04-24T17:13:22.271Z,87.60
2019-04-24T17:16:13.349Z,88.30
2019-04-24T17:19:09.361Z,87.30
2019-04-24T17:21:38.378Z,88.50
2019-04-24T17:24:05.815Z,88.20
2019-04-24T17:27:01.111Z,88.00
2019-04-24T17:29:33.624Z,89.40
2019-04-24T17:35:01.605Z,89.70
2019-04-24T17:37:09.646Z,90.50
2019-04-24T17:40:12.626Z,91.90
2019-04-24T17:43:43.695Z,92.10
2019-04-24T17:46:22.981Z,91.80
2019-04-24T17:51:52.854Z,92.90
2019-04-24T17:54:37.314Z,93.40
2019-04-24T17:57:16.809Z,92.80
2019-04-24T17:59:34.405Z,94.00
2019-04-24T18:02:16.904Z,95.20
2019-04-24T18:04:57.246Z,96.00
2019-04-24T18:07:38.903Z,96.50
2019-04-24T18:10:19.563Z,96.90
2019-04-24T18:13:01.270Z,97.20
2019-04-24T18:15:42.941Z,97.60
2019-04-24T18:18:23.485Z,98.00
2019-04-24T18:21:04.696Z,98.00
2019-04-24T18:23:46.431Z,97.50
2019-04-24T18:26:49.212Z,97.40
2019-04-24T18:29:29.645Z,97.60
2019-04-24T18:32:11.789Z,98.00
2019-04-24T18:34:52.134Z,98.90
2019-04-24T18:37:32.497Z,99.40
2019-04-24T18:40:13.980Z,99.90
2019-04-24T18:42:54.270Z,99.90
2019-04-24T18:45:34.370Z,99.90
2019-04-24T18:48:14.956Z,99.90
2019-04-24T18:50:55.214Z,99.90
2019-04-24T18:53:34.888Z,99.90
2019-04-24T18:56:16.013Z,99.90
2019-04-24T18:58:57.049Z,99.90
2019-04-24T19:01:38.222Z,99.90
2019-04-24T19:04:18.811Z,99.90
2019-04-24T19:06:59.205Z,99.90
2019-04-24T19:09:41.983Z,99.90
2019-04-24T19:12:22.261Z,99.90
2019-04-24T19:15:02.619Z,99.90
2019-04-24T19:17:54.268Z,99.90
2019-04-24T19:20:25.629Z,99.90
2019-04-24T19:23:06.996Z,99.90
2019-04-24T19:25:48.670Z,99.90
2019-04-24T19:28:28.749Z,99.90
2019-04-24T19:31:13.382Z,99.90
2019-04-24T19:33:54.085Z,99.90
2019-04-24T19:36:33.511Z,99.90
2019-04-24T19:39:14.277Z,99.90
2019-04-24T19:41:55.246Z,99.90
2019-04-24T19:44:38.569Z,99.90
2019-04-24T19:47:32.624Z,99.90
2019-04-24T19:50:07.454Z,99.90
2019-04-24T19:52:47.082Z,99.90
2019-04-24T19:55:27.318Z,99.90
2019-04-24T19:58:07.494Z,99.90
2019-04-24T20:00:47.494Z,99.90
2019-04-24T20:03:27.310Z,99.90
2019-04-24T20:06:08.385Z,99.90
2019-04-24T20:08:48.984Z,99.90
2019-04-24T20:14:47.160Z,99.90
2019-04-24T20:17:27.057Z,99.90
2019-04-24T20:20:07.413Z,99.90
2019-04-24T20:22:47.435Z,99.90
2019-04-24T20:25:28.076Z,99.90
2019-04-24T20:28:07.773Z,99.90
2019-04-24T20:30:48.265Z,99.90
2019-04-24T20:33:28.377Z,99.90
2019-04-24T20:36:08.641Z,99.90
2019-04-24T20:38:48.689Z,99.90
2019-04-24T20:41:28.518Z,99.90
2019-04-24T20:44:08.942Z,99.90
2019-04-24T20:46:49.133Z,99.90
2019-04-24T20:49:28.838Z,99.90
2019-04-24T20:52:09.257Z,99.90
2019-04-24T20:54:50.467Z,99.90
2019-04-24T20:57:30.213Z,99.90
2019-04-24T21:00:12.478Z,99.90
2019-04-24T21:02:52.889Z,99.90
2019-04-24T21:05:55.577Z,99.90
2019-04-24T21:12:03.538Z,99.90
2019-04-24T21:14:45.769Z,99.90
2019-04-24T21:17:25.670Z,99.90
2019-04-24T21:20:05.842Z,99.90
2019-04-24T21:22:33.413Z,99.90
2019-04-24T21:25:23.095Z,99.90
2019-04-24T21:28:25.274Z,99.90
2019-04-24T21:31:05.279Z,99.90
2019-04-24T21:33:45.239Z,99.90
2019-04-24T21:36:26.117Z,99.90
2019-04-24T21:39:07.701Z,99.90
2019-04-24T21:41:48.474Z,99.90
2019-04-24T21:44:28.753Z,99.90
2019-04-24T21:47:08.868Z,99.90
2019-04-24T21:49:49.093Z,99.90
2019-04-24T21:52:29.137Z,99.90
2019-04-24T21:55:09.122Z,99.90
2019-04-24T21:58:08.811Z,99.90
2019-04-24T22:01:07.869Z,99.90
2019-04-24T22:07:28.469Z,99.90
2019-04-24T22:10:09.841Z,99.90
2019-04-24T22:12:52.634Z,99.90
2019-04-24T22:15:33.753Z,99.90
2019-04-24T22:18:14.745Z,99.90
2019-04-24T22:20:57.128Z,99.90
2019-04-24T22:23:57.178Z,99.90
2019-04-24T22:26:37.873Z,99.90
2019-04-24T22:29:18.113Z,99.90
2019-04-24T22:32:17.562Z,99.90
2019-04-24T22:34:59.865Z,99.90
2019-04-24T22:37:40.366Z,99.90
2019-04-24T22:40:24.937Z,99.90
2019-04-24T22:43:07.014Z,99.90
2019-04-24T22:45:47.178Z,99.90
2019-04-24T22:48:28.835Z,99.90
2019-04-24T22:51:08.630Z,99.90
2019-04-24T22:53:48.730Z,99.90
2019-04-24T22:56:40.830Z,99.90
2019-04-24T22:59:12.312Z,99.90
2019-04-24T23:01:59.703Z,99.90
2019-04-24T23:04:36.014Z,99.90
2019-04-24T23:07:16.137Z,99.90
2019-04-24T23:09:56.086Z,99.90
2019-04-24T23:12:36.645Z,99.90
2019-04-24T23:15:17.590Z,99.90
2019-04-24T23:17:57.481Z,99.90
2019-04-24T23:20:57.001Z,99.90
2019-04-24T23:27:18.614Z,99.90
2019-04-24T23:36:17.581Z,99.90
2019-04-24T23:38:59.328Z,99.90
2019-04-24T23:41:40.359Z,99.90
2019-04-24T23:44:22.197Z,99.90
2019-04-24T23:47:02.617Z,99.90
2019-04-24T23:49:43.274Z,99.90
2019-04-24T23:52:24.133Z,99.90
2019-04-24T23:55:08.785Z,99.90
2019-04-24T23:57:49.882Z,99.90
